sensor_id;sensor_type;location;lat;lon;timestamp;P1;durP1;ratioP1;P2;durP2;ratioP2
14903;SDS011;7543;53.148;8.234;2022-09-04T00:01:45;2.20;;;1.30;;
14903;SDS011;7543;53.148;8.234;2022-09-04T00:04:20;4.67;;;1.33;;
14903;SDS011;7543;53.148;8.234;2022-09-04T00:06:55;2.10;;;1.17;;
14903;SDS011;7543;53.148;8.234;2022-09-04T00:09:31;2.63;;;1.40;;
14903;SDS011;7543;53.148;8.234;2022-09-04T00:12:05;1.10;;;1.00;;
14903;SDS011;7543;53.148;8.234;2022-09-04T00:14:38;1.10;;;1.00;;
14903;SDS011;7543;53.148;8.234;2022-09-04T00:17:09;1.20;;;1.00;;
14903;SDS011;7543;53.148;8.234;2022-09-04T00:19:42;1.23;;;0.93;;
14903;SDS011;7543;53.148;8.234;2022-09-04T00:22:14;2.50;;;1.13;;
14903;SDS011;7543;53.148;8.234;2022-09-04T00:24:50;2.50;;;1.00;;
14903;SDS011;7543;53.148;8.234;2022-09-04T00:27:22;2.90;;;0.93;;
14903;SDS011;7543;53.148;8.234;2022-09-04T00:29:53;1.30;;;1.00;;
14903;SDS011;7543;53.148;8.234;2022-09-04T00:32:27;1.73;;;1.27;;
14903;SDS011;7543;53.148;8.234;2022-09-04T00:35:03;2.97;;;1.10;;
14903;SDS011;7543;53.148;8.234;2022-09-04T00:37:35;1.10;;;1.00;;
14903;SDS011;7543;53.148;8.234;2022-09-04T00:40:08;1.97;;;1.03;;
14903;SDS011;7543;53.148;8.234;2022-09-04T00:42:46;1.90;;;1.03;;
14903;SDS011;7543;53.148;8.234;2022-09-04T00:45:30;3.53;;;1.70;;
14903;SDS011;7543;53.148;8.234;2022-09-04T00:51:13;1.77;;;1.10;;
14903;SDS011;7543;53.148;8.234;2022-09-04T01:00:08;1.57;;;1.17;;
14903;SDS011;7543;53.148;8.234;2022-09-04T01:05:35;2.67;;;1.27;;
14903;SDS011;7543;53.148;8.234;2022-09-04T01:08:09;2.73;;;1.40;;
14903;SDS011;7543;53.148;8.234;2022-09-04T01:10:48;2.23;;;1.30;;
14903;SDS011;7543;53.148;8.234;2022-09-04T01:13:24;3.77;;;1.27;;
14903;SDS011;7543;53.148;8.234;2022-09-04T01:16:00;1.97;;;1.30;;
14903;SDS011;7543;53.148;8.234;2022-09-04T01:18:33;1.23;;;1.00;;
14903;SDS011;7543;53.148;8.234;2022-09-04T01:21:17;1.33;;;1.00;;
14903;SDS011;7543;53.148;8.234;2022-09-04T01:24:09;3.43;;;1.13;;
14903;SDS011;7543;53.148;8.234;2022-09-04T01:26:52;2.60;;;1.30;;
14903;SDS011;7543;53.148;8.234;2022-09-04T01:29:25;3.53;;;1.20;;
14903;SDS011;7543;53.148;8.234;2022-09-04T01:31:59;1.90;;;1.00;;
14903;SDS011;7543;53.148;8.234;2022-09-04T01:34:38;1.30;;;1.03;;
14903;SDS011;7543;53.148;8.234;2022-09-04T01:37:22;1.20;;;1.00;;
14903;SDS011;7543;53.148;8.234;2022-09-04T01:39:59;3.83;;;1.10;;
14903;SDS011;7543;53.148;8.234;2022-09-04T01:42:46;2.47;;;1.20;;
14903;SDS011;7543;53.148;8.234;2022-09-04T01:45:19;0.93;;;0.83;;
14903;SDS011;7543;53.148;8.234;2022-09-04T01:47:56;1.40;;;1.00;;
14903;SDS011;7543;53.148;8.234;2022-09-04T01:50:25;3.60;;;1.40;;
14903;SDS011;7543;53.148;8.234;2022-09-04T01:52:57;2.27;;;1.10;;
14903;SDS011;7543;53.148;8.234;2022-09-04T01:55:31;1.83;;;1.00;;
14903;SDS011;7543;53.148;8.234;2022-09-04T01:58:10;1.93;;;1.10;;
14903;SDS011;7543;53.148;8.234;2022-09-04T02:00:47;1.10;;;0.90;;
14903;SDS011;7543;53.148;8.234;2022-09-04T02:03:22;1.50;;;1.07;;
14903;SDS011;7543;53.148;8.234;2022-09-04T02:05:55;1.87;;;1.20;;
14903;SDS011;7543;53.148;8.234;2022-09-04T02:08:34;2.60;;;1.27;;
14903;SDS011;7543;53.148;8.234;2022-09-04T02:11:07;3.07;;;1.20;;
14903;SDS011;7543;53.148;8.234;2022-09-04T02:13:43;1.33;;;0.93;;
14903;SDS011;7543;53.148;8.234;2022-09-04T02:16:32;2.90;;;1.30;;
14903;SDS011;7543;53.148;8.234;2022-09-04T02:19:10;3.40;;;1.20;;
14903;SDS011;7543;53.148;8.234;2022-09-04T02:21:47;1.57;;;1.17;;
14903;SDS011;7543;53.148;8.234;2022-09-04T02:24:21;1.40;;;1.27;;
14903;SDS011;7543;53.148;8.234;2022-09-04T02:26:54;2.93;;;1.30;;
14903;SDS011;7543;53.148;8.234;2022-09-04T02:29:30;1.90;;;1.20;;
14903;SDS011;7543;53.148;8.234;2022-09-04T02:32:00;1.90;;;1.30;;
14903;SDS011;7543;53.148;8.234;2022-09-04T02:34:32;2.00;;;0.93;;
14903;SDS011;7543;53.148;8.234;2022-09-04T02:37:06;1.90;;;1.20;;
14903;SDS011;7543;53.148;8.234;2022-09-04T02:39:41;1.60;;;1.20;;
14903;SDS011;7543;53.148;8.234;2022-09-04T02:42:16;1.20;;;0.93;;
14903;SDS011;7543;53.148;8.234;2022-09-04T02:44:54;1.50;;;1.00;;
14903;SDS011;7543;53.148;8.234;2022-09-04T02:47:30;6.03;;;1.10;;
14903;SDS011;7543;53.148;8.234;2022-09-04T02:50:02;2.40;;;1.10;;
14903;SDS011;7543;53.148;8.234;2022-09-04T02:52:43;1.77;;;1.10;;
14903;SDS011;7543;53.148;8.234;2022-09-04T02:55:26;1.47;;;1.20;;
14903;SDS011;7543;53.148;8.234;2022-09-04T02:58:14;1.30;;;1.00;;
14903;SDS011;7543;53.148;8.234;2022-09-04T03:00:49;2.33;;;0.93;;
14903;SDS011;7543;53.148;8.234;2022-09-04T03:03:23;2.83;;;1.40;;
14903;SDS011;7543;53.148;8.234;2022-09-04T03:05:55;1.77;;;1.20;;
14903;SDS011;7543;53.148;8.234;2022-09-04T03:08:29;1.53;;;1.20;;
14903;SDS011;7543;53.148;8.234;2022-09-04T03:11:03;1.27;;;1.10;;
14903;SDS011;7543;53.148;8.234;2022-09-04T03:13:36;1.90;;;1.20;;
14903;SDS011;7543;53.148;8.234;2022-09-04T03:16:12;2.40;;;1.20;;
14903;SDS011;7543;53.148;8.234;2022-09-04T03:18:52;3.83;;;1.20;;
14903;SDS011;7543;53.148;8.234;2022-09-04T03:21:26;1.70;;;1.30;;
14903;SDS011;7543;53.148;8.234;2022-09-04T03:23:57;3.60;;;1.00;;
14903;SDS011;7543;53.148;8.234;2022-09-04T03:26:28;2.53;;;1.13;;
14903;SDS011;7543;53.148;8.234;2022-09-04T03:29:00;1.90;;;1.30;;
14903;SDS011;7543;53.148;8.234;2022-09-04T03:31:39;3.03;;;1.27;;
14903;SDS011;7543;53.148;8.234;2022-09-04T03:34:16;1.67;;;1.10;;
14903;SDS011;7543;53.148;8.234;2022-09-04T03:36:49;1.30;;;1.20;;
14903;SDS011;7543;53.148;8.234;2022-09-04T03:39:24;1.47;;;1.10;;
14903;SDS011;7543;53.148;8.234;2022-09-04T03:42:00;4.40;;;1.20;;
14903;SDS011;7543;53.148;8.234;2022-09-04T03:44:34;4.40;;;1.13;;
14903;SDS011;7543;53.148;8.234;2022-09-04T03:47:09;2.57;;;1.40;;
14903;SDS011;7543;53.148;8.234;2022-09-04T03:49:48;1.03;;;0.93;;
14903;SDS011;7543;53.148;8.234;2022-09-04T03:52:22;2.40;;;1.30;;
14903;SDS011;7543;53.148;8.234;2022-09-04T03:55:01;2.10;;;1.40;;
14903;SDS011;7543;53.148;8.234;2022-09-04T03:57:42;4.33;;;1.20;;
14903;SDS011;7543;53.148;8.234;2022-09-04T04:00:19;2.33;;;1.40;;
14903;SDS011;7543;53.148;8.234;2022-09-04T04:05:38;1.90;;;1.40;;
14903;SDS011;7543;53.148;8.234;2022-09-04T04:08:22;3.00;;;1.47;;
14903;SDS011;7543;53.148;8.234;2022-09-04T04:11:03;3.13;;;1.43;;
14903;SDS011;7543;53.148;8.234;2022-09-04T04:13:47;2.53;;;1.33;;
14903;SDS011;7543;53.148;8.234;2022-09-04T04:16:25;2.47;;;1.40;;
14903;SDS011;7543;53.148;8.234;2022-09-04T04:19:14;1.60;;;1.17;;
14903;SDS011;7543;53.148;8.234;2022-09-04T04:21:53;2.30;;;1.43;;
14903;SDS011;7543;53.148;8.234;2022-09-04T04:24:32;2.10;;;1.17;;
14903;SDS011;7543;53.148;8.234;2022-09-04T04:27:22;1.30;;;1.10;;
14903;SDS011;7543;53.148;8.234;2022-09-04T04:30:04;1.77;;;1.30;;
14903;SDS011;7543;53.148;8.234;2022-09-04T04:32:38;2.40;;;1.40;;
14903;SDS011;7543;53.148;8.234;2022-09-04T04:35:31;1.70;;;1.30;;
14903;SDS011;7543;53.148;8.234;2022-09-04T04:38:07;2.13;;;1.50;;
14903;SDS011;7543;53.148;8.234;2022-09-04T04:40:48;1.40;;;1.30;;
14903;SDS011;7543;53.148;8.234;2022-09-04T04:43:28;1.70;;;1.33;;
14903;SDS011;7543;53.148;8.234;2022-09-04T04:46:01;1.67;;;1.20;;
14903;SDS011;7543;53.148;8.234;2022-09-04T04:48:42;3.50;;;1.40;;
14903;SDS011;7543;53.148;8.234;2022-09-04T04:51:40;2.13;;;1.50;;
14903;SDS011;7543;53.148;8.234;2022-09-04T04:54:33;1.60;;;1.13;;
14903;SDS011;7543;53.148;8.234;2022-09-04T04:57:12;1.80;;;1.30;;
14903;SDS011;7543;53.148;8.234;2022-09-04T04:59:49;1.50;;;1.13;;
14903;SDS011;7543;53.148;8.234;2022-09-04T05:02:22;1.40;;;1.20;;
14903;SDS011;7543;53.148;8.234;2022-09-04T05:04:54;1.70;;;1.27;;
14903;SDS011;7543;53.148;8.234;2022-09-04T05:07:31;2.17;;;1.30;;
14903;SDS011;7543;53.148;8.234;2022-09-04T05:10:04;1.83;;;1.20;;
14903;SDS011;7543;53.148;8.234;2022-09-04T05:12:49;1.90;;;1.30;;
14903;SDS011;7543;53.148;8.234;2022-09-04T05:15:23;2.03;;;1.30;;
14903;SDS011;7543;53.148;8.234;2022-09-04T05:17:54;1.33;;;1.23;;
14903;SDS011;7543;53.148;8.234;2022-09-04T05:20:27;1.17;;;1.00;;
14903;SDS011;7543;53.148;8.234;2022-09-04T05:23:03;2.30;;;1.43;;
14903;SDS011;7543;53.148;8.234;2022-09-04T05:25:39;1.40;;;1.20;;
14903;SDS011;7543;53.148;8.234;2022-09-04T05:28:18;1.53;;;1.27;;
14903;SDS011;7543;53.148;8.234;2022-09-04T05:30:51;1.47;;;1.17;;
14903;SDS011;7543;53.148;8.234;2022-09-04T05:33:28;1.30;;;1.20;;
14903;SDS011;7543;53.148;8.234;2022-09-04T05:36:03;7.53;;;1.57;;
14903;SDS011;7543;53.148;8.234;2022-09-04T05:38:39;2.50;;;1.43;;
14903;SDS011;7543;53.148;8.234;2022-09-04T05:41:15;3.40;;;1.57;;
14903;SDS011;7543;53.148;8.234;2022-09-04T05:43:57;4.30;;;1.30;;
14903;SDS011;7543;53.148;8.234;2022-09-04T05:46:33;2.10;;;1.37;;
14903;SDS011;7543;53.148;8.234;2022-09-04T05:49:11;3.97;;;1.60;;
14903;SDS011;7543;53.148;8.234;2022-09-04T05:51:50;1.67;;;1.30;;
14903;SDS011;7543;53.148;8.234;2022-09-04T05:54:54;1.27;;;1.17;;
14903;SDS011;7543;53.148;8.234;2022-09-04T05:57:45;1.87;;;1.30;;
14903;SDS011;7543;53.148;8.234;2022-09-04T06:00:21;1.20;;;1.10;;
14903;SDS011;7543;53.148;8.234;2022-09-04T06:03:14;1.53;;;1.27;;
14903;SDS011;7543;53.148;8.234;2022-09-04T06:15:02;1.60;;;1.40;;
14903;SDS011;7543;53.148;8.234;2022-09-04T06:17:59;2.90;;;1.33;;
14903;SDS011;7543;53.148;8.234;2022-09-04T06:20:50;2.23;;;1.20;;
14903;SDS011;7543;53.148;8.234;2022-09-04T06:23:35;1.40;;;1.20;;
14903;SDS011;7543;53.148;8.234;2022-09-04T06:26:16;2.67;;;1.20;;
14903;SDS011;7543;53.148;8.234;2022-09-04T06:29:05;3.10;;;1.33;;
14903;SDS011;7543;53.148;8.234;2022-09-04T06:35:02;1.20;;;1.10;;
14903;SDS011;7543;53.148;8.234;2022-09-04T06:37:40;3.63;;;1.30;;
14903;SDS011;7543;53.148;8.234;2022-09-04T06:40:16;1.77;;;1.40;;
14903;SDS011;7543;53.148;8.234;2022-09-04T06:42:57;3.57;;;1.50;;
14903;SDS011;7543;53.148;8.234;2022-09-04T06:45:37;1.10;;;1.00;;
14903;SDS011;7543;53.148;8.234;2022-09-04T06:48:12;1.73;;;1.03;;
14903;SDS011;7543;53.148;8.234;2022-09-04T06:50:50;1.60;;;1.20;;
14903;SDS011;7543;53.148;8.234;2022-09-04T06:53:25;4.50;;;1.33;;
14903;SDS011;7543;53.148;8.234;2022-09-04T06:56:04;2.67;;;1.33;;
14903;SDS011;7543;53.148;8.234;2022-09-04T06:58:56;2.47;;;1.30;;
14903;SDS011;7543;53.148;8.234;2022-09-04T07:01:49;1.30;;;1.20;;
14903;SDS011;7543;53.148;8.234;2022-09-04T07:04:33;1.67;;;1.30;;
14903;SDS011;7543;53.148;8.234;2022-09-04T07:07:10;1.73;;;1.47;;
14903;SDS011;7543;53.148;8.234;2022-09-04T07:09:46;1.83;;;1.43;;
14903;SDS011;7543;53.148;8.234;2022-09-04T07:12:23;3.30;;;1.57;;
14903;SDS011;7543;53.148;8.234;2022-09-04T07:15:11;1.77;;;1.50;;
14903;SDS011;7543;53.148;8.234;2022-09-04T07:18:07;3.70;;;1.50;;
14903;SDS011;7543;53.148;8.234;2022-09-04T07:20:42;2.83;;;1.37;;
14903;SDS011;7543;53.148;8.234;2022-09-04T07:23:15;1.73;;;1.37;;
14903;SDS011;7543;53.148;8.234;2022-09-04T07:25:57;2.27;;;1.40;;
14903;SDS011;7543;53.148;8.234;2022-09-04T07:28:45;2.80;;;1.60;;
14903;SDS011;7543;53.148;8.234;2022-09-04T07:31:24;2.20;;;1.43;;
14903;SDS011;7543;53.148;8.234;2022-09-04T07:33:59;2.57;;;1.40;;
14903;SDS011;7543;53.148;8.234;2022-09-04T07:36:33;4.77;;;1.57;;
14903;SDS011;7543;53.148;8.234;2022-09-04T07:39:07;1.97;;;1.40;;
14903;SDS011;7543;53.148;8.234;2022-09-04T07:41:41;3.00;;;1.60;;
14903;SDS011;7543;53.148;8.234;2022-09-04T07:44:12;2.73;;;1.60;;
14903;SDS011;7543;53.148;8.234;2022-09-04T07:46:45;2.90;;;1.60;;
14903;SDS011;7543;53.148;8.234;2022-09-04T07:49:21;2.10;;;1.60;;
14903;SDS011;7543;53.148;8.234;2022-09-04T07:51:56;5.07;;;1.53;;
14903;SDS011;7543;53.148;8.234;2022-09-04T07:54:35;3.30;;;1.77;;
14903;SDS011;7543;53.148;8.234;2022-09-04T07:57:16;2.97;;;1.40;;
14903;SDS011;7543;53.148;8.234;2022-09-04T08:00:00;2.67;;;1.70;;
14903;SDS011;7543;53.148;8.234;2022-09-04T08:02:51;3.43;;;1.63;;
14903;SDS011;7543;53.148;8.234;2022-09-04T08:05:42;2.50;;;1.60;;
14903;SDS011;7543;53.148;8.234;2022-09-04T08:08:26;2.77;;;1.87;;
14903;SDS011;7543;53.148;8.234;2022-09-04T08:11:10;3.50;;;1.53;;
14903;SDS011;7543;53.148;8.234;2022-09-04T08:14:03;1.93;;;1.43;;
14903;SDS011;7543;53.148;8.234;2022-09-04T08:16:41;4.03;;;1.53;;
14903;SDS011;7543;53.148;8.234;2022-09-04T08:19:17;2.27;;;1.67;;
14903;SDS011;7543;53.148;8.234;2022-09-04T08:21:53;3.30;;;1.83;;
14903;SDS011;7543;53.148;8.234;2022-09-04T08:24:28;3.17;;;1.73;;
14903;SDS011;7543;53.148;8.234;2022-09-04T08:27:24;3.33;;;1.90;;
14903;SDS011;7543;53.148;8.234;2022-09-04T08:30:03;4.67;;;1.73;;
14903;SDS011;7543;53.148;8.234;2022-09-04T08:32:46;2.03;;;1.63;;
14903;SDS011;7543;53.148;8.234;2022-09-04T08:35:23;3.33;;;1.90;;
14903;SDS011;7543;53.148;8.234;2022-09-04T08:38:05;3.57;;;1.63;;
14903;SDS011;7543;53.148;8.234;2022-09-04T08:40:54;2.47;;;1.70;;
14903;SDS011;7543;53.148;8.234;2022-09-04T08:46:36;1.93;;;1.67;;
14903;SDS011;7543;53.148;8.234;2022-09-04T08:55:35;3.43;;;1.70;;
14903;SDS011;7543;53.148;8.234;2022-09-04T08:58:26;2.27;;;1.70;;
14903;SDS011;7543;53.148;8.234;2022-09-04T09:01:33;3.07;;;2.00;;
14903;SDS011;7543;53.148;8.234;2022-09-04T09:07:27;3.10;;;1.87;;
14903;SDS011;7543;53.148;8.234;2022-09-04T09:16:18;3.40;;;2.23;;
14903;SDS011;7543;53.148;8.234;2022-09-04T09:18:53;3.92;;;2.00;;
14903;SDS011;7543;53.148;8.234;2022-09-04T09:21:39;6.93;;;2.40;;
14903;SDS011;7543;53.148;8.234;2022-09-04T09:24:25;4.10;;;2.60;;
14903;SDS011;7543;53.148;8.234;2022-09-04T09:27:10;4.28;;;2.33;;
14903;SDS011;7543;53.148;8.234;2022-09-04T09:30:04;4.15;;;2.38;;
14903;SDS011;7543;53.148;8.234;2022-09-04T09:32:41;4.30;;;2.42;;
14903;SDS011;7543;53.148;8.234;2022-09-04T09:38:42;6.22;;;2.40;;
14903;SDS011;7543;53.148;8.234;2022-09-04T09:41:47;4.30;;;2.15;;
14903;SDS011;7543;53.148;8.234;2022-09-04T09:44:52;4.70;;;2.00;;
14903;SDS011;7543;53.148;8.234;2022-09-04T09:47:51;8.32;;;2.63;;
14903;SDS011;7543;53.148;8.234;2022-09-04T09:50:52;2.83;;;2.00;;
14903;SDS011;7543;53.148;8.234;2022-09-04T09:56:54;4.20;;;2.20;;
14903;SDS011;7543;53.148;8.234;2022-09-04T09:59:49;2.63;;;2.20;;
14903;SDS011;7543;53.148;8.234;2022-09-04T10:02:51;3.95;;;2.60;;
14903;SDS011;7543;53.148;8.234;2022-09-04T10:05:43;2.53;;;1.98;;
14903;SDS011;7543;53.148;8.234;2022-09-04T10:08:27;3.92;;;2.47;;
14903;SDS011;7543;53.148;8.234;2022-09-04T10:11:04;3.40;;;2.17;;
14903;SDS011;7543;53.148;8.234;2022-09-04T10:13:57;3.65;;;2.17;;
14903;SDS011;7543;53.148;8.234;2022-09-04T10:19:41;6.15;;;2.50;;
14903;SDS011;7543;53.148;8.234;2022-09-04T10:22:26;3.38;;;1.98;;
14903;SDS011;7543;53.148;8.234;2022-09-04T10:25:17;7.45;;;2.25;;
14903;SDS011;7543;53.148;8.234;2022-09-04T10:31:07;4.55;;;2.30;;
14903;SDS011;7543;53.148;8.234;2022-09-04T10:34:09;2.17;;;1.88;;
14903;SDS011;7543;53.148;8.234;2022-09-04T10:36:48;5.13;;;1.90;;
14903;SDS011;7543;53.148;8.234;2022-09-04T10:39:21;2.78;;;1.88;;
14903;SDS011;7543;53.148;8.234;2022-09-04T10:42:15;3.42;;;2.20;;
14903;SDS011;7543;53.148;8.234;2022-09-04T10:44:54;3.60;;;2.17;;
14903;SDS011;7543;53.148;8.234;2022-09-04T10:47:35;4.28;;;2.15;;
14903;SDS011;7543;53.148;8.234;2022-09-04T10:50:23;3.53;;;2.30;;
14903;SDS011;7543;53.148;8.234;2022-09-04T10:53:13;3.25;;;1.95;;
14903;SDS011;7543;53.148;8.234;2022-09-04T10:56:00;3.88;;;2.50;;
14903;SDS011;7543;53.148;8.234;2022-09-04T10:58:38;3.20;;;1.75;;
14903;SDS011;7543;53.148;8.234;2022-09-04T11:01:28;4.07;;;2.20;;
14903;SDS011;7543;53.148;8.234;2022-09-04T11:04:17;2.67;;;1.70;;
14903;SDS011;7543;53.148;8.234;2022-09-04T11:07:16;3.53;;;2.00;;
14903;SDS011;7543;53.148;8.234;2022-09-04T11:10:06;3.58;;;2.00;;
14903;SDS011;7543;53.148;8.234;2022-09-04T11:12:57;2.10;;;1.50;;
14903;SDS011;7543;53.148;8.234;2022-09-04T11:16:02;3.22;;;1.90;;
14903;SDS011;7543;53.148;8.234;2022-09-04T11:18:51;2.58;;;1.88;;
14903;SDS011;7543;53.148;8.234;2022-09-04T11:28:29;3.30;;;1.85;;
14903;SDS011;7543;53.148;8.234;2022-09-04T11:31:37;6.07;;;1.80;;
14903;SDS011;7543;53.148;8.234;2022-09-04T11:37:24;2.60;;;1.80;;
14903;SDS011;7543;53.148;8.234;2022-09-04T11:40:25;2.70;;;1.83;;
14903;SDS011;7543;53.148;8.234;2022-09-04T11:46:30;3.97;;;1.65;;
14903;SDS011;7543;53.148;8.234;2022-09-04T11:52:14;2.45;;;1.63;;
14903;SDS011;7543;53.148;8.234;2022-09-04T11:55:03;2.42;;;1.70;;
14903;SDS011;7543;53.148;8.234;2022-09-04T11:57:46;3.25;;;1.63;;
14903;SDS011;7543;53.148;8.234;2022-09-04T12:00:25;2.30;;;1.83;;
14903;SDS011;7543;53.148;8.234;2022-09-04T12:03:12;2.03;;;1.50;;
14903;SDS011;7543;53.148;8.234;2022-09-04T12:06:08;4.38;;;1.95;;
14903;SDS011;7543;53.148;8.234;2022-09-04T12:08:47;2.42;;;1.73;;
14903;SDS011;7543;53.148;8.234;2022-09-04T12:11:57;2.15;;;1.60;;
14903;SDS011;7543;53.148;8.234;2022-09-04T12:14:53;2.17;;;1.80;;
14903;SDS011;7543;53.148;8.234;2022-09-04T12:17:58;2.75;;;1.65;;
14903;SDS011;7543;53.148;8.234;2022-09-04T12:20:41;1.65;;;1.33;;
14903;SDS011;7543;53.148;8.234;2022-09-04T12:23:34;2.50;;;1.80;;
14903;SDS011;7543;53.148;8.234;2022-09-04T12:29:30;3.10;;;1.70;;
14903;SDS011;7543;53.148;8.234;2022-09-04T12:32:21;2.45;;;1.55;;
14903;SDS011;7543;53.148;8.234;2022-09-04T12:38:09;2.05;;;1.60;;
14903;SDS011;7543;53.148;8.234;2022-09-04T12:40:52;1.40;;;1.30;;
14903;SDS011;7543;53.148;8.234;2022-09-04T12:43:30;2.67;;;1.90;;
14903;SDS011;7543;53.148;8.234;2022-09-04T12:46:12;2.22;;;1.52;;
14903;SDS011;7543;53.148;8.234;2022-09-04T12:48:50;1.50;;;1.38;;
14903;SDS011;7543;53.148;8.234;2022-09-04T12:51:26;2.83;;;1.70;;
14903;SDS011;7543;53.148;8.234;2022-09-04T12:54:07;3.60;;;2.05;;
14903;SDS011;7543;53.148;8.234;2022-09-04T12:56:44;2.58;;;1.70;;
14903;SDS011;7543;53.148;8.234;2022-09-04T12:59:22;3.40;;;1.67;;
14903;SDS011;7543;53.148;8.234;2022-09-04T13:02:01;2.40;;;1.60;;
14903;SDS011;7543;53.148;8.234;2022-09-04T13:04:34;5.88;;;1.65;;
14903;SDS011;7543;53.148;8.234;2022-09-04T13:07:13;3.35;;;1.45;;
14903;SDS011;7543;53.148;8.234;2022-09-04T13:09:53;2.92;;;1.50;;
14903;SDS011;7543;53.148;8.234;2022-09-04T13:12:26;2.35;;;1.58;;
14903;SDS011;7543;53.148;8.234;2022-09-04T13:15:15;2.65;;;1.58;;
14903;SDS011;7543;53.148;8.234;2022-09-04T13:17:50;2.03;;;1.40;;
14903;SDS011;7543;53.148;8.234;2022-09-04T13:20:27;2.17;;;1.50;;
14903;SDS011;7543;53.148;8.234;2022-09-04T13:23:07;3.33;;;1.77;;
14903;SDS011;7543;53.148;8.234;2022-09-04T13:25:48;1.83;;;1.42;;
14903;SDS011;7543;53.148;8.234;2022-09-04T13:28:23;2.80;;;1.73;;
14903;SDS011;7543;53.148;8.234;2022-09-04T13:31:03;2.30;;;1.40;;
14903;SDS011;7543;53.148;8.234;2022-09-04T13:33:48;2.63;;;1.60;;
14903;SDS011;7543;53.148;8.234;2022-09-04T13:36:24;3.35;;;1.88;;
14903;SDS011;7543;53.148;8.234;2022-09-04T13:42:00;1.90;;;1.70;;
14903;SDS011;7543;53.148;8.234;2022-09-04T13:47:29;2.58;;;1.40;;
14903;SDS011;7543;53.148;8.234;2022-09-04T13:50:09;2.65;;;1.50;;
14903;SDS011;7543;53.148;8.234;2022-09-04T13:52:43;1.58;;;1.30;;
14903;SDS011;7543;53.148;8.234;2022-09-04T13:55:16;4.03;;;1.48;;
14903;SDS011;7543;53.148;8.234;2022-09-04T13:57:50;1.60;;;1.40;;
14903;SDS011;7543;53.148;8.234;2022-09-04T14:00:23;1.55;;;1.40;;
14903;SDS011;7543;53.148;8.234;2022-09-04T14:02:54;1.50;;;1.27;;
14903;SDS011;7543;53.148;8.234;2022-09-04T14:05:26;1.33;;;1.23;;
14903;SDS011;7543;53.148;8.234;2022-09-04T14:07:56;2.90;;;1.40;;
14903;SDS011;7543;53.148;8.234;2022-09-04T14:10:35;2.30;;;1.58;;
14903;SDS011;7543;53.148;8.234;2022-09-04T14:17:10;2.92;;;1.40;;
14903;SDS011;7543;53.148;8.234;2022-09-04T14:19:42;4.95;;;1.80;;
14903;SDS011;7543;53.148;8.234;2022-09-04T14:22:21;2.67;;;1.48;;
14903;SDS011;7543;53.148;8.234;2022-09-04T14:24:56;3.03;;;1.60;;
14903;SDS011;7543;53.148;8.234;2022-09-04T14:27:33;1.70;;;1.45;;
14903;SDS011;7543;53.148;8.234;2022-09-04T14:30:06;2.20;;;1.35;;
14903;SDS011;7543;53.148;8.234;2022-09-04T14:32:45;2.47;;;1.40;;
14903;SDS011;7543;53.148;8.234;2022-09-04T14:35:22;1.63;;;1.25;;
14903;SDS011;7543;53.148;8.234;2022-09-04T14:38:00;2.17;;;1.20;;
14903;SDS011;7543;53.148;8.234;2022-09-04T14:40:54;2.08;;;1.40;;
14903;SDS011;7543;53.148;8.234;2022-09-04T14:43:29;2.13;;;1.40;;
14903;SDS011;7543;53.148;8.234;2022-09-04T14:46:08;1.55;;;1.20;;
14903;SDS011;7543;53.148;8.234;2022-09-04T14:48:42;3.80;;;1.27;;
14903;SDS011;7543;53.148;8.234;2022-09-04T14:51:14;2.67;;;1.40;;
14903;SDS011;7543;53.148;8.234;2022-09-04T14:53:45;1.75;;;1.38;;
14903;SDS011;7543;53.148;8.234;2022-09-04T14:56:25;4.13;;;1.50;;
14903;SDS011;7543;53.148;8.234;2022-09-04T14:58:59;3.92;;;1.30;;
14903;SDS011;7543;53.148;8.234;2022-09-04T15:01:34;1.60;;;1.50;;
14903;SDS011;7543;53.148;8.234;2022-09-04T15:04:05;2.33;;;1.40;;
14903;SDS011;7543;53.148;8.234;2022-09-04T15:06:39;2.75;;;1.10;;
14903;SDS011;7543;53.148;8.234;2022-09-04T15:09:17;1.85;;;1.25;;
14903;SDS011;7543;53.148;8.234;2022-09-04T15:11:48;2.28;;;1.25;;
14903;SDS011;7543;53.148;8.234;2022-09-04T15:14:21;1.35;;;1.25;;
14903;SDS011;7543;53.148;8.234;2022-09-04T15:16:59;2.40;;;1.40;;
14903;SDS011;7543;53.148;8.234;2022-09-04T15:19:33;1.70;;;1.40;;
14903;SDS011;7543;53.148;8.234;2022-09-04T15:22:11;1.98;;;1.42;;
14903;SDS011;7543;53.148;8.234;2022-09-04T15:24:48;3.72;;;1.20;;
14903;SDS011;7543;53.148;8.234;2022-09-04T15:27:20;2.33;;;1.40;;
14903;SDS011;7543;53.148;8.234;2022-09-04T15:29:57;1.35;;;1.25;;
14903;SDS011;7543;53.148;8.234;2022-09-04T15:33:01;1.83;;;1.17;;
14903;SDS011;7543;53.148;8.234;2022-09-04T15:35:31;2.22;;;1.25;;
14903;SDS011;7543;53.148;8.234;2022-09-04T15:38:04;2.28;;;1.30;;
14903;SDS011;7543;53.148;8.234;2022-09-04T15:40:34;2.42;;;1.30;;
14903;SDS011;7543;53.148;8.234;2022-09-04T15:43:08;1.20;;;1.10;;
14903;SDS011;7543;53.148;8.234;2022-09-04T15:45:41;2.00;;;1.40;;
14903;SDS011;7543;53.148;8.234;2022-09-04T15:51:13;4.72;;;1.55;;
14903;SDS011;7543;53.148;8.234;2022-09-04T15:53:47;3.13;;;1.70;;
14903;SDS011;7543;53.148;8.234;2022-09-04T15:56:26;2.72;;;1.20;;
14903;SDS011;7543;53.148;8.234;2022-09-04T15:58:58;3.10;;;1.40;;
14903;SDS011;7543;53.148;8.234;2022-09-04T16:01:31;1.85;;;1.23;;
14903;SDS011;7543;53.148;8.234;2022-09-04T16:04:09;1.30;;;1.20;;
14903;SDS011;7543;53.148;8.234;2022-09-04T16:06:44;1.48;;;1.35;;
14903;SDS011;7543;53.148;8.234;2022-09-04T16:09:17;2.22;;;1.42;;
14903;SDS011;7543;53.148;8.234;2022-09-04T16:11:52;1.73;;;1.40;;
14903;SDS011;7543;53.148;8.234;2022-09-04T16:14:26;1.80;;;1.40;;
14903;SDS011;7543;53.148;8.234;2022-09-04T16:17:00;2.20;;;1.77;;
14903;SDS011;7543;53.148;8.234;2022-09-04T16:19:30;2.30;;;1.45;;
14903;SDS011;7543;53.148;8.234;2022-09-04T16:22:04;1.40;;;1.30;;
14903;SDS011;7543;53.148;8.234;2022-09-04T16:24:37;3.65;;;1.40;;
14903;SDS011;7543;53.148;8.234;2022-09-04T16:27:07;4.70;;;1.65;;
14903;SDS011;7543;53.148;8.234;2022-09-04T16:29:39;1.50;;;1.40;;
14903;SDS011;7543;53.148;8.234;2022-09-04T16:32:17;1.88;;;1.40;;
14903;SDS011;7543;53.148;8.234;2022-09-04T16:34:47;1.85;;;1.42;;
14903;SDS011;7543;53.148;8.234;2022-09-04T16:37:19;1.83;;;1.42;;
14903;SDS011;7543;53.148;8.234;2022-09-04T16:40:10;1.88;;;1.50;;
14903;SDS011;7543;53.148;8.234;2022-09-04T16:42:42;2.45;;;1.40;;
14903;SDS011;7543;53.148;8.234;2022-09-04T16:45:15;4.15;;;1.80;;
14903;SDS011;7543;53.148;8.234;2022-09-04T16:47:52;2.00;;;1.38;;
14903;SDS011;7543;53.148;8.234;2022-09-04T16:50:36;2.22;;;1.38;;
14903;SDS011;7543;53.148;8.234;2022-09-04T16:53:15;3.53;;;1.80;;
14903;SDS011;7543;53.148;8.234;2022-09-04T16:55:50;7.55;;;1.88;;
14903;SDS011;7543;53.148;8.234;2022-09-04T16:58:29;1.40;;;1.30;;
14903;SDS011;7543;53.148;8.234;2022-09-04T17:01:10;2.85;;;1.55;;
14903;SDS011;7543;53.148;8.234;2022-09-04T17:06:39;2.50;;;1.65;;
14903;SDS011;7543;53.148;8.234;2022-09-04T17:09:15;2.58;;;1.60;;
14903;SDS011;7543;53.148;8.234;2022-09-04T17:11:48;3.70;;;1.50;;
14903;SDS011;7543;53.148;8.234;2022-09-04T17:14:19;2.08;;;1.52;;
14903;SDS011;7543;53.148;8.234;2022-09-04T17:16:50;3.15;;;1.60;;
14903;SDS011;7543;53.148;8.234;2022-09-04T17:19:24;1.52;;;1.30;;
14903;SDS011;7543;53.148;8.234;2022-09-04T17:25:13;2.80;;;1.52;;
14903;SDS011;7543;53.148;8.234;2022-09-04T17:27:46;2.15;;;1.25;;
14903;SDS011;7543;53.148;8.234;2022-09-04T17:30:22;1.77;;;1.50;;
14903;SDS011;7543;53.148;8.234;2022-09-04T17:32:54;2.42;;;1.70;;
14903;SDS011;7543;53.148;8.234;2022-09-04T17:35:30;1.85;;;1.50;;
14903;SDS011;7543;53.148;8.234;2022-09-04T17:38:06;2.05;;;1.70;;
14903;SDS011;7543;53.148;8.234;2022-09-04T17:40:42;2.55;;;1.48;;
14903;SDS011;7543;53.148;8.234;2022-09-04T17:43:29;2.30;;;1.80;;
14903;SDS011;7543;53.148;8.234;2022-09-04T17:46:04;1.92;;;1.40;;
14903;SDS011;7543;53.148;8.234;2022-09-04T17:48:38;4.80;;;1.50;;
14903;SDS011;7543;53.148;8.234;2022-09-04T17:51:14;2.67;;;1.60;;
14903;SDS011;7543;53.148;8.234;2022-09-04T17:53:45;1.60;;;1.50;;
14903;SDS011;7543;53.148;8.234;2022-09-04T17:56:17;2.63;;;1.88;;